首页
METAR-TAF:

METAR-TAF

机场 :

堪薩斯城, 密蘇里州, 美国

纬度: 39-17-50N, 经度: 094-43-50W, 海拔: 312米

当前天气观测

该预报发布于33分钟前的12:53 UTC
风速9节,风向南转西南
温度 14°C
湿度 77%
气压 1005 hPa
能見度: 16.1公里
少量云层高于13000英尺

METAR: KMCI 221253Z 21009KT 10SM FEW130 14/10 A2967 RMK AO2 SLP043 T01390100

时间: 08:26 (13:26 UTC)

预报

该预报发布于2小时和6分钟前的11:20 UTC
预报有效从22日的 12点(UTC)到 23日的 12点(UTC)
风速7节,风向西南
能見度: 10公里
天空无云
从 22日的 2200点(UTC)
风速10节,风向西转西南
能見度: 10公里
散云层高于10000英尺
附近有阵雨
从 23日的 0000点(UTC)
风速5节,风向西
能見度: 9.7公里
多云层高于9000英尺, 积雨云.
雷暴, 小雨, 轻雾
从 23日的 0300点(UTC)
风速5节,风向西北
能見度: 10公里
散云层高于10000英尺
附近有阵雨

TAF: KMCI 221120Z 2212/2312 22007KT P6SM SKC FM222200 24010KT P6SM VCSH SCT100 FM230000 27005KT 6SM -TSRA BR BKN090CB FM230300 32005KT P6SM VCSH SCT100

超过4000个机场的气象观测和天气预报(METAR&TAF报告)。

可查询的气象台以黄色和红色小点在地图上表示。

将鼠标移到小点上方,可查看气象台名称。

然后点击查看天气观测和预报。

如需切换地图:点击带黑十字的绿色按钮放大地图;点击带横线的绿色按钮缩小地图;或者点击绿色箭头查看邻近地区的地图。


METAR-TAF: